Time;durP1;ratioP1;P1;durP2;ratioP2;P2;SDS_P1;SDS_P2;PMS_P1;PMS_P2;Temp;Humidity;BMP_temperature;BMP_pressure;BME280_temperature;BME280_humidity;BME280_pressure;Samples;Min_cycle;Max_cycle;Signal;HPM_P1;HPM_P2
2020/12/10 00:00:15;;;;;;;20.20;11.23;;;;;;;2.61;74.16;99189.31;3879507;23;20016;-83
2020/12/10 00:01:50;;;;;;;16.95;9.55;;;;;;;2.68;74.03;99194.13;3876986;22;20035;-81
2020/12/10 00:03:22;;;;;;;18.48;10.13;;;;;;;2.71;73.97;99188.63;3880011;23;20035;-82
2020/12/10 00:04:54;;;;;;;18.88;10.07;;;;;;;2.65;74.05;99188.13;3877361;23;20204;-82
2020/12/10 00:06:26;;;;;;;18.20;10.70;;;;;;;2.51;73.94;99193.59;3879572;23;20024;-83
2020/12/10 00:07:57;;;;;;;16.23;9.52;;;;;;;2.44;74.14;99193.22;3876945;22;20020;-84
2020/12/10 00:09:30;;;;;;;20.85;11.55;;;;;;;2.41;73.60;99195.22;3879250;23;20020;-83
2020/12/10 00:11:01;;;;;;;20.13;10.30;;;;;;;2.39;73.52;99197.13;3877961;22;20031;-84
2020/12/10 00:12:32;;;;;;;18.98;10.60;;;;;;;2.37;74.15;99196.41;3879020;23;20095;-82
2020/12/10 00:14:03;;;;;;;;;;;;;;;2.30;73.93;99207.41;3877552;22;20016;-85
2020/12/10 00:15:35;;;;;;;17.27;9.25;;;;;;;2.37;74.01;99199.03;3881261;23;19919;-82
2020/12/10 00:17:06;;;;;;;20.15;10.88;;;;;;;2.29;74.06;99195.19;3878976;23;20048;-83
2020/12/10 00:18:37;;;;;;;19.65;10.32;;;;;;;2.27;73.91;99189.16;3881936;23;20076;-81
2020/12/10 00:20:09;;;;;;;18.15;10.45;;;;;;;2.27;73.94;99196.25;3878775;22;20051;-82
2020/12/10 00:21:41;;;;;;;20.63;11.23;;;;;;;2.27;73.91;99194.44;3880001;23;20016;-82
2020/12/10 00:23:13;;;;;;;19.50;11.25;;;;;;;2.23;74.26;99187.72;3882333;23;20020;-84
2020/12/10 00:24:47;;;;;;;19.45;10.38;;;;;;;2.27;74.11;99173.34;3878837;22;20031;-83
2020/12/10 00:26:19;;;;;;;18.02;9.38;;;;;;;2.25;74.06;99183.19;3882851;23;20492;-83
2020/12/10 00:27:51;;;;;;;18.10;9.88;;;;;;;2.28;73.79;99188.22;3878111;23;20040;-83
2020/12/10 00:29:21;;;;;;;16.50;9.60;;;;;;;2.30;73.90;99181.03;3881307;23;20024;-83
2020/12/10 00:30:52;;;;;;;;;;;;;;;2.18;74.26;99181.94;3875284;22;20032;-82
2020/12/10 00:32:25;;;;;;;15.88;9.00;;;;;;;2.32;74.04;99179.13;3881104;23;19995;-82
2020/12/10 00:33:55;;;;;;;20.60;9.75;;;;;;;2.36;74.06;99181.56;3877235;23;20047;-82
2020/12/10 00:35:27;;;;;;;;;;;;;;;2.29;73.70;99178.53;3881727;23;20020;-82
2020/12/10 00:36:58;;;;;;;12.80;6.35;;;;;;;2.47;73.76;99173.66;3878500;22;19915;-83
2020/12/10 00:38:29;;;;;;;;;;;;;;;2.44;73.92;99172.09;3880977;23;20021;-82
2020/12/10 00:40:01;;;;;;;15.00;8.13;;;;;;;2.46;73.65;99170.19;3877861;23;23714;-82
2020/12/10 00:41:32;;;;;;;17.55;9.65;;;;;;;2.31;73.61;99166.91;3880348;23;20457;-84
2020/12/10 00:43:04;;;;;;;20.60;10.18;;;;;;;2.25;73.66;99162.09;3877442;22;20030;-82
2020/12/10 00:44:35;;;;;;;16.92;9.05;;;;;;;2.31;73.64;99160.78;3881106;23;20020;-82
2020/12/10 00:46:07;;;;;;;16.75;8.73;;;;;;;2.37;73.79;99165.59;3877956;23;20039;-82
2020/12/10 00:47:38;;;;;;;19.58;9.23;;;;;;;2.40;73.56;99154.84;3880744;23;20031;-83
2020/12/10 00:49:09;;;;;;;15.85;8.93;;;;;;;2.40;73.48;99157.47;3877295;22;20020;-83
2020/12/10 00:50:40;;;;;;;;;;;;;;;2.32;73.61;99157.16;3879436;23;20024;-82
2020/12/10 00:52:12;;;;;;;19.13;9.40;;;;;;;2.37;73.73;99159.47;3875923;23;19927;-83
2020/12/10 00:53:44;;;;;;;16.48;9.20;;;;;;;2.33;73.49;99157.06;3880620;23;20055;-83
2020/12/10 00:55:16;;;;;;;16.98;9.63;;;;;;;2.28;73.38;99158.38;3877867;23;20020;-83
2020/12/10 00:56:48;;;;;;;15.60;8.23;;;;;;;2.36;73.68;99158.63;3880371;23;20031;-83
2020/12/10 00:58:19;;;;;;;16.02;8.20;;;;;;;2.44;73.65;99158.06;3878193;22;20076;-83
2020/12/10 00:59:50;;;;;;;17.58;9.65;;;;;;;2.51;73.48;99159.28;3879637;23;20020;-83
2020/12/10 01:01:21;;;;;;;16.60;8.93;;;;;;;2.45;73.25;99152.69;3877814;23;20383;-83
2020/12/10 01:02:52;;;;;;;;;;;;;;;2.36;73.09;99163.09;3881782;23;20020;-82
2020/12/10 01:04:23;;;;;;;16.08;8.35;;;;;;;2.38;73.16;99163.78;3878745;22;19916;-83
2020/12/10 01:05:55;;;;;;;13.93;7.03;;;;;;;2.49;73.14;99155.94;3881591;23;20027;-81
2020/12/10 01:07:26;;;;;;;13.02;7.32;;;;;;;2.49;73.14;99155.94;3878341;23;20020;-82
2020/12/10 01:08:57;;;;;;;16.77;9.10;;;;;;;2.46;73.00;99156.16;3882383;23;20020;-84
2020/12/10 01:10:29;;;;;;;;;;;;;;;2.39;73.46;99157.56;3880277;22;20099;-83
2020/12/10 01:12:03;;;;;;;14.73;7.88;;;;;;;2.38;72.97;99147.97;3883223;23;19920;-83
2020/12/10 01:13:34;;;;;;;14.68;8.02;;;;;;;2.36;73.31;99160.44;3879243;23;20016;-83
2020/12/10 01:15:06;;;;;;;13.48;7.97;;;;;;;2.40;72.93;99153.97;3883723;23;20059;-85
2020/12/10 01:16:38;;;;;;;15.18;7.32;;;;;;;2.44;73.00;99155.44;3882986;22;20051;-84
2020/12/10 01:18:10;;;;;;;15.50;8.05;;;;;;;2.45;72.92;99162.41;3886051;23;20027;-82
2020/12/10 01:19:40;;;;;;;15.73;8.30;;;;;;;2.42;72.84;99157.34;3883448;23;20140;-84
2020/12/10 01:21:11;;;;;;;;;;;;;;;2.29;73.05;99158.25;3887373;23;20044;-83
2020/12/10 01:22:43;;;;;;;14.30;8.43;;;;;;;2.32;73.11;99162.44;3884069;23;19910;-83
2020/12/10 01:24:14;;;;;;;15.05;8.30;;;;;;;2.36;73.33;99155.19;3886578;23;20024;-82
2020/12/10 01:25:46;;;;;;;16.10;7.75;;;;;;;2.39;72.52;99157.56;3885790;23;20020;-84
2020/12/10 01:27:21;;;;;;;12.73;7.22;;;;;;;2.43;72.46;99159.84;3888578;23;20027;-84
2020/12/10 01:28:52;;;;;;;14.73;8.20;;;;;;;2.53;72.48;99156.53;3887940;22;20028;-84
2020/12/10 01:30:23;;;;;;;;;;;;;;;2.45;72.56;99155.31;3891710;22;20035;-82
2020/12/10 01:31:55;;;;;;;12.88;6.75;;;;;;;2.51;72.72;99156.66;3889576;22;19899;-83
2020/12/10 01:33:25;;;;;;;14.68;7.25;;;;;;;2.59;72.61;99162.19;3880609;23;20476;-81
2020/12/10 01:34:56;;;;;;;;;;;;;;;2.41;71.96;99153.03;3877831;22;20075;-83
2020/12/10 01:36:29;;;;;;;14.52;7.60;;;;;;;2.42;72.29;99157.34;3880134;23;19923;-83
2020/12/10 01:38:01;;;;;;;16.95;8.23;;;;;;;2.47;72.21;99160.47;3878725;23;20058;-83
2020/12/10 01:39:33;;;;;;;16.90;8.55;;;;;;;2.50;72.06;99157.63;3880055;23;20027;-82
2020/12/10 01:41:05;;;;;;;18.15;8.63;;;;;;;2.48;72.20;99159.50;3876891;22;20020;-83
2020/12/10 01:42:36;;;;;;;17.73;9.43;;;;;;;2.38;72.16;99162.00;3880284;23;20020;-82
2020/12/10 01:44:09;;;;;;;15.43;8.13;;;;;;;2.34;72.22;99150.00;3877951;23;20024;-83
2020/12/10 01:45:40;;;;;;;13.25;6.75;;;;;;;2.44;72.05;99140.44;3880354;22;20028;-82
2020/12/10 01:47:11;;;;;;;;;;;;;;;2.39;71.65;99144.38;3882721;23;20020;-81
2020/12/10 01:48:43;;;;;;;11.35;5.55;;;;;;;2.51;72.02;99140.81;3884832;23;19920;-82
2020/12/10 01:50:16;;;;;;;11.40;5.53;;;;;;;2.62;71.81;99143.50;3883797;23;20023;-82
2020/12/10 01:51:49;;;;;;;13.85;6.75;;;;;;;2.67;71.54;99137.03;3882584;22;20023;-83
2020/12/10 01:53:32;;;;;;;14.05;7.40;;;;;;;2.54;70.91;99137.09;3893174;22;20008;-83
2020/12/10 01:55:06;;;;;;;16.55;8.73;;;;;;;2.43;71.46;99130.84;3890350;22;20008;-83
2020/12/10 01:56:46;;;;;;;15.45;7.38;;;;;;;2.55;71.19;99125.59;3892276;22;20005;-82
2020/12/10 01:58:19;;;;;;;12.90;6.60;;;;;;;2.67;71.27;99123.81;3889174;22;20024;-83
2020/12/10 01:59:52;;;;;;;13.32;6.75;;;;;;;2.69;71.30;99116.63;3891141;22;20027;-84
2020/12/10 02:01:29;;;;;;;14.40;7.72;;;;;;;2.72;71.03;99119.06;3887378;23;20011;-82
2020/12/10 02:03:00;;;;;;;14.43;7.70;;;;;;;2.78;71.36;99118.56;3890382;23;20027;-82
2020/12/10 02:04:34;;;;;;;15.27;7.32;;;;;;;2.76;71.22;99109.91;3887997;22;20031;-83
2020/12/10 02:06:04;;;;;;;15.38;8.73;;;;;;;2.72;70.98;99109.31;3890475;22;20095;-84
2020/12/10 02:07:36;;;;;;;13.52;7.47;;;;;;;2.62;71.24;99111.84;3887555;22;20020;-82
2020/12/10 02:09:07;;;;;;;14.98;7.88;;;;;;;2.61;71.21;99104.88;3886758;22;20020;-83
2020/12/10 02:10:38;;;;;;;12.75;6.68;;;;;;;2.71;71.29;99102.34;3883117;22;20020;-82
2020/12/10 02:12:10;;;;;;;13.23;6.50;;;;;;;2.79;71.01;99112.34;3882233;23;20024;-82
2020/12/10 02:13:41;;;;;;;13.38;7.20;;;;;;;2.79;71.02;99107.88;3883078;22;20035;-84
2020/12/10 02:15:24;;;;;;;12.90;6.90;;;;;;;2.77;70.29;99106.31;3891117;23;20068;-86
2020/12/10 02:16:56;;;;;;;13.95;6.68;;;;;;;2.75;70.99;99101.19;3888845;22;20019;-83
2020/12/10 02:18:27;;;;;;;16.15;8.93;;;;;;;2.72;70.57;99100.56;3881101;23;20111;-82
2020/12/10 02:19:59;;;;;;;13.50;6.60;;;;;;;2.73;70.70;99107.53;3875909;23;20024;-82
2020/12/10 02:21:30;;;;;;;12.20;6.88;;;;;;;2.72;70.87;99090.03;3878852;23;20012;-82
2020/12/10 02:23:03;;;;;;;11.52;6.03;;;;;;;2.76;70.94;99092.31;3876657;22;20457;-81
2020/12/10 02:24:35;;;;;;;15.13;8.32;;;;;;;2.76;70.92;99088.81;3878263;23;20203;-82
2020/12/10 02:26:05;;;;;;;12.85;6.97;;;;;;;2.72;70.80;99087.38;3876490;23;20031;-82
2020/12/10 02:27:37;;;;;;;;;;;;;;;2.69;71.19;99091.09;3878807;23;20028;-82
2020/12/10 02:29:08;;;;;;;13.98;6.63;;;;;;;2.82;70.92;99088.34;3876062;22;19915;-82
2020/12/10 02:30:41;;;;;;;14.57;7.70;;;;;;;2.84;71.01;99089.03;3877978;23;20078;-82
2020/12/10 02:32:12;;;;;;;13.00;6.85;;;;;;;2.90;70.83;99077.19;3876224;23;20357;-82
2020/12/10 02:33:43;;;;;;;10.98;5.95;;;;;;;2.95;70.77;99081.13;3874660;22;20499;-82
2020/12/10 02:35:14;;;;;;;13.60;7.45;;;;;;;3.04;70.73;99089.31;3877786;23;20020;-83
2020/12/10 02:36:47;;;;;;;13.27;7.57;;;;;;;3.00;70.68;99090.53;3884424;23;20008;-83
2020/12/10 02:38:19;;;;;;;15.05;7.38;;;;;;;3.04;70.79;99079.59;3889428;23;20008;-83
2020/12/10 02:39:50;;;;;;;17.00;7.90;;;;;;;3.03;70.86;99082.34;3878514;22;20017;-82
2020/12/10 02:41:21;;;;;;;12.35;5.93;;;;;;;3.10;70.85;99083.56;3877666;23;20027;-83
2020/12/10 02:42:52;;;;;;;;;;;;;;;2.99;70.26;99080.91;3874970;23;20024;-82
2020/12/10 02:44:24;;;;;;;17.10;7.97;;;;;;;2.94;70.81;99076.81;3876335;23;19926;-82
2020/12/10 02:45:55;;;;;;;14.35;7.95;;;;;;;2.91;70.61;99074.44;3873362;22;20024;-82
2020/12/10 02:47:26;;;;;;;15.43;8.10;;;;;;;2.87;70.68;99083.53;3876225;23;20028;-83
2020/12/10 02:48:57;;;;;;;14.38;7.43;;;;;;;2.87;70.81;99077.44;3874430;23;20020;-82
2020/12/10 02:50:31;;;;;;;11.57;6.43;;;;;;;2.96;70.53;99077.53;3876469;23;20047;-81
2020/12/10 02:52:02;;;;;;;15.70;8.07;;;;;;;3.02;70.44;99075.41;3874984;23;20020;-82
2020/12/10 02:53:38;;;;;;;15.13;7.90;;;;;;;2.95;70.44;99075.03;3876090;23;20479;-82
2020/12/10 02:55:09;;;;;;;14.02;8.13;;;;;;;2.87;70.53;99080.06;3874373;23;20020;-82
2020/12/10 02:56:40;;;;;;;15.95;8.48;;;;;;;2.80;70.55;99074.44;3875183;23;20028;-82
2020/12/10 02:58:13;;;;;;;14.73;8.02;;;;;;;2.76;70.67;99067.69;3875180;23;20020;-82
2020/12/10 02:59:47;;;;;;;15.43;8.38;;;;;;;2.74;70.81;99069.63;3877760;23;20433;-83
2020/12/10 03:01:19;;;;;;;15.73;7.38;;;;;;;2.81;70.84;99073.47;3876888;22;20330;-82
2020/12/10 03:02:52;;;;;;;15.80;8.07;;;;;;;2.79;71.08;99064.81;3879210;23;20024;-82
2020/12/10 03:04:23;;;;;;;15.50;7.38;;;;;;;2.74;70.99;99056.44;3875686;23;20032;-81
2020/12/10 03:05:54;;;;;;;13.38;8.02;;;;;;;2.71;71.10;99052.22;3878225;23;20028;-82
2020/12/10 03:07:25;;;;;;;18.40;9.52;;;;;;;2.64;71.12;99051.88;3875771;22;20020;-82
2020/12/10 03:08:58;;;;;;;15.30;8.73;;;;;;;2.58;71.22;99057.59;3877268;23;20334;-82
2020/12/10 03:10:29;;;;;;;20.65;9.85;;;;;;;2.67;71.10;99052.56;3874735;23;20026;-81
2020/12/10 03:12:01;;;;;;;16.10;8.38;;;;;;;2.64;71.21;99051.00;3879439;23;20444;-82
2020/12/10 03:13:32;;;;;;;16.45;9.52;;;;;;;2.65;70.87;99048.25;3872539;22;20086;-82
2020/12/10 03:15:03;;;;;;;15.52;8.52;;;;;;;2.68;71.17;99043.69;3877261;23;20020;-81
2020/12/10 03:16:34;;;;;;;;;;;;;;;2.50;70.85;99044.16;3875839;23;20030;-82
2020/12/10 03:18:05;;;;;;;14.50;8.20;;;;;;;2.55;71.22;99044.63;3878120;23;19916;-83
2020/12/10 03:19:36;;;;;;;;;;;;;;;2.45;71.23;99046.31;3876211;22;20667;-81
2020/12/10 03:21:07;;;;;;;18.30;8.38;;;;;;;2.53;71.30;99036.00;3878873;23;19971;-80
2020/12/10 03:22:40;;;;;;;14.63;7.95;;;;;;;2.63;71.07;99033.50;3876197;23;20024;-81
2020/12/10 03:24:11;;;;;;;16.83;8.02;;;;;;;2.73;71.01;99023.06;3878459;23;20072;-84
2020/12/10 03:25:43;;;;;;;15.48;8.25;;;;;;;2.78;71.14;99026.19;3877566;22;20050;-82
2020/12/10 03:27:15;;;;;;;14.35;5.97;;;;;;;2.86;70.99;99022.94;3880120;23;20020;-80
2020/12/10 03:28:46;;;;;;;14.90;7.30;;;;;;;2.89;70.88;99017.41;3876912;23;20030;-81
2020/12/10 03:30:17;;;;;;;16.45;7.97;;;;;;;2.87;70.69;99022.81;3878968;23;20020;-80
2020/12/10 03:31:48;;;;;;;14.80;6.50;;;;;;;2.86;70.77;99021.13;3879898;22;20024;-80
2020/12/10 03:33:19;;;;;;;12.48;6.13;;;;;;;2.95;70.60;99016.94;3882140;23;20092;-80
2020/12/10 03:34:51;;;;;;;13.50;5.63;;;;;;;3.03;70.43;99021.59;3878987;23;20039;-80
2020/12/10 03:36:22;;;;;;;14.35;7.38;;;;;;;3.10;70.16;99017.53;3881972;23;20024;-80
2020/12/10 03:37:53;;;;;;;;;;;;;;;2.93;70.25;99014.41;3885395;22;20024;-81
2020/12/10 03:39:26;;;;;;;12.48;5.85;;;;;;;3.06;70.07;99013.44;3889932;23;19923;-83
2020/12/10 03:40:58;;;;;;;12.45;5.00;;;;;;;3.11;69.98;99013.94;3885189;23;20024;-82
2020/12/10 03:42:28;;;;;;;12.40;5.63;;;;;;;3.16;69.63;99010.94;3888745;23;20061;-82
2020/12/10 03:43:59;;;;;;;;;;;;;;;3.04;69.32;98996.88;3877806;22;20039;-81
2020/12/10 03:45:33;;;;;;;12.00;6.25;;;;;;;3.10;69.54;99001.69;3879146;23;19916;-83
2020/12/10 03:47:05;;;;;;;12.00;6.45;;;;;;;3.14;69.50;98997.00;3876339;23;20044;-81
2020/12/10 03:48:36;;;;;;;12.27;5.70;;;;;;;3.16;69.45;98989.78;3885118;23;20050;-82
2020/12/10 03:50:07;;;;;;;11.60;6.07;;;;;;;3.20;69.59;98986.78;3887218;22;20067;-82
2020/12/10 03:51:39;;;;;;;15.98;7.82;;;;;;;3.11;69.82;98984.88;3891090;22;20019;-82
2020/12/10 03:53:10;;;;;;;15.63;8.07;;;;;;;3.03;69.98;98984.63;3877474;23;20016;-81
2020/12/10 03:54:42;;;;;;;17.77;8.43;;;;;;;2.94;70.28;98984.41;3874068;22;20020;-80
2020/12/10 03:56:13;;;;;;;16.15;8.32;;;;;;;2.97;70.26;98978.06;3877210;22;20081;-81
2020/12/10 03:57:45;;;;;;;15.63;8.48;;;;;;;2.97;70.41;98984.16;3874891;23;20024;-81
2020/12/10 03:59:16;;;;;;;11.43;5.25;;;;;;;3.03;70.08;98985.50;3876152;23;20024;-82
2020/12/10 04:00:47;;;;;;;11.32;5.57;;;;;;;3.07;69.86;98984.25;3873588;22;20023;-81
2020/12/10 04:02:18;;;;;;;12.77;6.72;;;;;;;3.14;69.61;98992.53;3877137;23;20453;-80
2020/12/10 04:03:50;;;;;;;9.77;5.43;;;;;;;3.16;69.51;98992.44;3873990;23;20027;-81
2020/12/10 04:05:21;;;;;;;11.68;6.75;;;;;;;3.20;69.47;98993.84;3875156;23;20027;-81
2020/12/10 04:06:52;;;;;;;14.35;6.60;;;;;;;3.16;69.61;98989.78;3874214;22;20020;-82
2020/12/10 04:08:25;;;;;;;14.95;8.15;;;;;;;3.09;69.79;98992.09;3881423;23;20020;-82
2020/12/10 04:09:57;;;;;;;15.20;8.73;;;;;;;3.02;69.76;98985.63;3878314;23;20024;-81
2020/12/10 04:11:28;;;;;;;17.00;8.35;;;;;;;3.00;69.96;98983.09;3881060;23;20017;-81
2020/12/10 04:12:59;;;;;;;;;;;;;;;2.81;70.13;98976.63;3876651;22;20050;-81
2020/12/10 04:14:30;;;;;;;15.45;6.82;;;;;;;2.89;70.26;98970.75;3880322;23;19938;-81
2020/12/10 04:16:01;;;;;;;14.93;7.38;;;;;;;2.94;70.09;98975.66;3877985;23;20043;-82
2020/12/10 04:17:32;;;;;;;15.70;7.43;;;;;;;2.97;70.11;98976.25;3880905;23;20405;-82
2020/12/10 04:19:04;;;;;;;14.40;8.00;;;;;;;2.96;70.44;98966.66;3877754;22;20074;-82
2020/12/10 04:20:35;;;;;;;15.00;7.43;;;;;;;3.04;70.07;98962.53;3881028;23;20103;-82
2020/12/10 04:22:06;;;;;;;15.13;7.63;;;;;;;3.06;69.92;98963.28;3879912;23;20031;-81
2020/12/10 04:23:38;;;;;;;13.00;7.18;;;;;;;3.10;70.01;98965.53;3880472;23;20024;-81
2020/12/10 04:25:12;;;;;;;17.05;8.73;;;;;;;3.04;69.78;98975.75;3874899;22;20024;-81
2020/12/10 04:26:43;;;;;;;15.88;8.32;;;;;;;3.02;69.88;98969.78;3879062;23;20031;-81
2020/12/10 04:28:14;;;;;;;13.52;7.32;;;;;;;3.01;70.09;98973.38;3876204;23;20051;-80
2020/12/10 04:29:45;;;;;;;13.98;7.38;;;;;;;3.07;69.92;98972.88;3875627;23;20024;-80
2020/12/10 04:31:17;;;;;;;14.98;7.40;;;;;;;3.07;69.55;98967.59;3874235;22;20024;-81
2020/12/10 04:32:48;;;;;;;11.93;5.53;;;;;;;3.09;69.56;98968.31;3876991;23;20477;-81
2020/12/10 04:34:19;;;;;;;11.70;5.97;;;;;;;3.13;69.69;98975.00;3875099;23;20020;-84
2020/12/10 04:35:50;;;;;;;14.60;6.85;;;;;;;3.17;69.46;98973.81;3878004;23;20273;-81
2020/12/10 04:37:22;;;;;;;14.63;8.32;;;;;;;3.09;69.43;98970.97;3873427;22;20020;-81
2020/12/10 04:38:53;;;;;;;15.13;8.07;;;;;;;3.02;69.93;98975.06;3875921;23;20051;-80
2020/12/10 04:40:25;;;;;;;16.17;8.32;;;;;;;2.95;69.92;98980.81;3873749;23;20024;-80
2020/12/10 04:41:57;;;;;;;15.77;8.60;;;;;;;2.99;69.76;98975.28;3874367;23;20017;-80
2020/12/10 04:43:28;;;;;;;14.75;7.95;;;;;;;3.00;70.00;98971.69;3874375;23;20594;-80
2020/12/10 04:44:59;;;;;;;;;;;;;;;2.79;70.70;98975.91;3877507;23;20022;-81
2020/12/10 04:46:32;;;;;;;14.05;6.65;;;;;;;2.99;70.00;98967.38;3876251;23;19973;-81
2020/12/10 04:48:04;;;;;;;13.70;7.75;;;;;;;2.96;70.02;98971.94;3877878;23;20044;-81
2020/12/10 04:49:35;;;;;;;14.27;7.05;;;;;;;3.06;69.79;98971.19;3873832;23;20020;-81
2020/12/10 04:51:08;;;;;;;15.23;7.43;;;;;;;3.06;70.04;98973.84;3877274;23;20022;-81
2020/12/10 04:52:39;;;;;;;16.80;9.07;;;;;;;3.03;69.77;98971.44;3873094;22;20020;-82
2020/12/10 04:54:11;;;;;;;12.02;6.43;;;;;;;3.03;69.80;98971.44;3876381;23;20024;-81
2020/12/10 04:55:43;;;;;;;16.70;8.68;;;;;;;3.01;69.89;98968.09;3873124;23;20032;-80
2020/12/10 04:57:17;;;;;;;15.63;8.25;;;;;;;2.97;69.77;98963.03;3875918;23;20341;-81
2020/12/10 04:58:48;;;;;;;14.10;7.20;;;;;;;3.01;69.90;98970.72;3872967;22;20435;-81
2020/12/10 05:00:20;;;;;;;14.85;8.35;;;;;;;3.08;69.73;98961.34;3875662;23;20024;-81
2020/12/10 05:01:55;;;;;;;13.45;7.13;;;;;;;3.10;69.52;98964.72;3873028;23;20027;-81
2020/12/10 05:03:27;;;;;;;14.02;7.53;;;;;;;3.10;69.80;98962.06;3875972;23;20020;-82
2020/12/10 05:04:58;;;;;;;14.23;7.25;;;;;;;3.15;69.59;98959.06;3873097;22;20472;-81
2020/12/10 05:06:29;;;;;;;14.23;6.90;;;;;;;3.19;69.51;98955.19;3875641;23;20024;-82
2020/12/10 05:08:02;;;;;;;13.82;7.38;;;;;;;3.22;69.41;98960.25;3872968;23;20023;-81
2020/12/10 05:09:33;;;;;;;16.08;8.00;;;;;;;3.23;69.49;98960.09;3874525;23;20024;-81
2020/12/10 05:11:06;;;;;;;14.73;8.25;;;;;;;3.23;69.29;98954.00;3872855;23;20021;-80
2020/12/10 05:12:41;;;;;;;14.68;7.50;;;;;;;3.19;69.45;98958.69;3881568;23;20024;-83
2020/12/10 05:16:25;;;;;;;15.60;8.20;;;;;;;3.07;69.73;98957.03;3841717;23;20022;-83
2020/12/10 05:18:07;;;;;;;17.70;8.50;;;;;;;3.01;69.85;98953.06;3880219;23;20020;-81
2020/12/10 05:19:39;;;;;;;14.82;7.95;;;;;;;2.93;70.19;98952.84;3876173;22;20020;-81
2020/12/10 05:21:14;;;;;;;17.55;9.70;;;;;;;2.90;70.16;98950.44;3884240;23;20020;-81
2020/12/10 05:22:46;;;;;;;15.63;7.63;;;;;;;2.93;70.34;98951.03;3878676;23;20468;-81
2020/12/10 05:24:20;;;;;;;14.60;7.72;;;;;;;2.91;70.17;98947.72;3880804;23;20102;-81
2020/12/10 05:25:54;;;;;;;11.88;6.63;;;;;;;2.94;70.33;98955.38;3881057;22;20028;-81
2020/12/10 05:27:26;;;;;;;13.10;7.18;;;;;;;2.97;70.25;98947.22;3889643;23;20020;-80
2020/12/10 05:28:58;;;;;;;15.43;8.18;;;;;;;3.02;70.05;98948.66;3887659;23;20008;-82
2020/12/10 05:30:29;;;;;;;16.42;7.72;;;;;;;3.01;69.95;98944.31;3890662;23;20012;-83
2020/12/10 05:32:00;;;;;;;12.10;6.10;;;;;;;2.99;70.17;98940.97;3881555;22;20016;-80
2020/12/10 05:33:33;;;;;;;14.48;7.82;;;;;;;2.97;70.10;98944.56;3880221;23;20342;-82
2020/12/10 05:35:19;;;;;;;16.55;8.18;;;;;;;2.89;70.08;98944.34;3879473;23;20024;-82
2020/12/10 05:36:51;;;;;;;14.38;7.18;;;;;;;2.88;70.29;98955.88;3875073;22;20034;-81
2020/12/10 05:38:22;;;;;;;15.48;8.52;;;;;;;2.86;70.51;98955.13;3880603;23;20023;-85
2020/12/10 05:39:58;;;;;;;13.88;7.97;;;;;;;2.80;70.46;98948.53;3879243;23;20020;-82
2020/12/10 05:41:30;;;;;;;13.00;7.93;;;;;;;2.80;70.78;98950.34;3881739;23;20024;-81
2020/12/10 05:43:02;;;;;;;15.15;7.68;;;;;;;2.79;70.79;98946.03;3878945;22;20098;-81
2020/12/10 05:44:34;;;;;;;13.43;7.45;;;;;;;2.76;70.73;98952.41;3883506;23;20812;-83
2020/12/10 05:46:14;;;;;;;15.43;7.50;;;;;;;2.77;70.65;98943.53;3883368;23;20020;-81
2020/12/10 05:47:47;;;;;;;16.20;8.93;;;;;;;2.78;70.58;98952.28;3881264;23;20327;-82
2020/12/10 05:49:19;;;;;;;18.25;9.40;;;;;;;2.76;70.78;98943.63;3880662;22;20012;-82
2020/12/10 05:50:50;;;;;;;14.45;7.25;;;;;;;2.78;70.90;98944.34;3879841;23;20031;-82
2020/12/10 05:52:25;;;;;;;16.70;8.50;;;;;;;2.72;70.73;98943.03;3875988;23;20024;-83
2020/12/10 05:54:01;;;;;;;19.55;8.55;;;;;;;2.71;70.65;98946.63;3879194;23;20074;-82
2020/12/10 05:55:33;;;;;;;15.40;7.40;;;;;;;2.68;70.61;98949.53;3875097;22;20020;-82
2020/12/10 05:58:53;;;;;;;15.40;7.43;;;;;;;2.68;70.64;98940.75;3876033;23;20023;-81
2020/12/10 06:00:24;;;;;;;14.15;7.78;;;;;;;2.66;70.64;98943.53;3885381;23;20027;-81
2020/12/10 06:01:58;;;;;;;13.18;7.03;;;;;;;2.71;70.72;98938.72;3878986;22;20352;-81
2020/12/10 06:03:29;;;;;;;18.77;8.60;;;;;;;2.68;70.80;98946.91;3881871;23;20020;-83
2020/12/10 06:05:01;;;;;;;17.13;9.32;;;;;;;2.61;71.24;98943.91;3877605;23;20232;-83
2020/12/10 06:06:32;;;;;;;17.55;8.15;;;;;;;2.65;71.37;98947.13;3877232;23;20048;-81
2020/12/10 06:08:05;;;;;;;15.80;9.00;;;;;;;2.65;71.05;98945.31;3876611;22;20031;-83
2020/12/10 06:09:38;;;;;;;16.02;8.35;;;;;;;2.67;71.15;98939.06;3886920;23;20028;-81
2020/12/10 06:11:17;;;;;;;16.92;9.07;;;;;;;2.64;71.06;98941.03;3879646;23;20016;-81
2020/12/10 06:12:50;;;;;;;21.05;10.52;;;;;;;2.62;71.27;98935.03;3880180;22;20027;-81
2020/12/10 06:14:22;;;;;;;17.83;9.48;;;;;;;2.60;71.33;98930.81;3881088;23;20012;-82
2020/12/10 06:15:54;;;;;;;16.17;8.95;;;;;;;2.56;71.38;98935.50;3878729;23;20027;-81
2020/12/10 06:17:25;;;;;;;15.45;8.95;;;;;;;2.55;71.61;98927.69;3879818;23;20051;-82
2020/12/10 06:19:01;;;;;;;15.98;8.48;;;;;;;2.58;71.38;98930.09;3879179;22;20056;-81
2020/12/10 06:20:38;;;;;;;17.52;9.02;;;;;;;2.56;71.36;98932.03;3878856;23;20040;-80
2020/12/10 06:22:26;;;;;;;13.85;7.88;;;;;;;2.56;71.57;98932.84;3882689;23;20035;-83
2020/12/10 06:23:57;;;;;;;14.90;7.57;;;;;;;2.57;71.51;98931.06;3885125;23;20046;-83
2020/12/10 06:25:30;;;;;;;16.90;9.27;;;;;;;2.53;71.46;98941.03;3881630;22;20112;-85
2020/12/10 06:27:21;;;;;;;16.02;8.93;;;;;;;2.58;71.29;98936.22;3884798;23;20020;-81
2020/12/10 06:29:14;;;;;;;12.90;7.45;;;;;;;2.58;71.48;98936.22;3879678;23;20063;-82
2020/12/10 06:31:02;;;;;;;15.15;7.93;;;;;;;2.60;71.44;98929.03;3877112;22;20055;-81
2020/12/10 06:32:40;;;;;;;13.48;6.82;;;;;;;2.63;71.18;98931.44;3881075;23;20377;-82
2020/12/10 06:34:41;;;;;;;15.25;8.07;;;;;;;2.64;70.99;98938.38;3879202;23;20020;-82
2020/12/10 06:36:19;;;;;;;13.65;6.47;;;;;;;2.70;70.97;98930.94;3884799;23;20012;-81
2020/12/10 06:37:51;;;;;;;12.20;6.45;;;;;;;2.71;71.02;98932.63;3880461;22;20024;-81
2020/12/10 06:39:36;;;;;;;14.52;7.50;;;;;;;2.67;71.02;98929.38;3883535;23;20032;-82
2020/12/10 06:41:07;;;;;;;14.15;7.60;;;;;;;2.71;71.20;98930.81;3877556;23;20044;-80
2020/12/10 06:42:46;;;;;;;13.70;7.18;;;;;;;2.69;71.12;98938.03;3883747;23;20020;-83
2020/12/10 06:44:31;;;;;;;14.15;7.22;;;;;;;2.69;70.77;98937.16;3882934;23;20468;-81
2020/12/10 06:46:04;;;;;;;15.60;8.10;;;;;;;2.71;71.12;98935.25;3881600;23;20027;-82
2020/12/10 06:47:41;;;;;;;16.17;8.52;;;;;;;2.72;70.81;98937.75;3887695;23;20020;-83
2020/12/10 06:49:28;;;;;;;15.75;8.32;;;;;;;2.65;71.08;98950.59;3886598;22;20032;-82
2020/12/10 06:51:14;;;;;;;15.73;8.40;;;;;;;2.69;70.96;98945.09;3891661;22;20024;-81
2020/12/10 06:53:07;;;;;;;14.05;7.18;;;;;;;2.67;70.95;98939.06;3889068;22;20381;-80
2020/12/10 06:55:10;;;;;;;15.30;7.82;;;;;;;2.71;70.94;98951.09;3892504;23;20032;-82
2020/12/10 06:56:56;;;;;;;17.27;8.85;;;;;;;2.66;71.07;98948.81;3890880;23;20016;-82
2020/12/10 06:58:51;;;;;;;14.70;7.47;;;;;;;2.64;70.81;98948.09;3890150;23;20039;-83
2020/12/10 07:00:42;;;;;;;17.05;8.32;;;;;;;2.65;70.67;98955.88;3889868;22;20015;-82
2020/12/10 07:02:16;;;;;;;13.85;6.93;;;;;;;2.69;70.83;98953.00;3882731;23;20247;-82
2020/12/10 07:03:48;;;;;;;17.33;8.57;;;;;;;2.71;70.77;98951.91;3878209;23;20051;-81
2020/12/10 07:05:31;;;;;;;17.67;8.52;;;;;;;2.67;70.59;98949.63;3878892;23;20024;-81
2020/12/10 07:07:13;;;;;;;13.23;6.88;;;;;;;2.72;70.53;98952.78;3878090;22;20028;-82
2020/12/10 07:08:59;;;;;;;14.52;6.93;;;;;;;2.75;70.39;98947.22;3881657;23;20031;-81
2020/12/10 07:10:37;;;;;;;14.57;8.50;;;;;;;2.78;70.59;98957.56;3882173;23;20043;-84
2020/12/10 07:12:18;;;;;;;16.20;7.93;;;;;;;2.79;70.44;98954.78;3886105;23;20020;-82
2020/12/10 07:13:49;;;;;;;14.20;7.80;;;;;;;2.79;70.56;98954.78;3884525;22;20020;-82
2020/12/10 07:15:23;;;;;;;11.68;6.25;;;;;;;2.84;70.50;98956.22;3879020;23;20024;-82
2020/12/10 07:16:56;;;;;;;16.25;8.45;;;;;;;2.83;70.43;98958.03;3877007;23;20102;-82
2020/12/10 07:18:28;;;;;;;14.20;7.57;;;;;;;2.85;70.23;98950.00;3879083;23;20566;-81
2020/12/10 07:19:59;;;;;;;14.23;7.35;;;;;;;2.84;70.41;98954.41;3878044;22;20020;-83
2020/12/10 07:21:30;;;;;;;13.93;7.80;;;;;;;2.88;70.28;98942.66;3879936;23;20016;-82
2020/12/10 07:23:02;;;;;;;18.20;8.50;;;;;;;2.90;70.36;98948.66;3877276;23;20028;-82
2020/12/10 07:24:33;;;;;;;15.93;7.30;;;;;;;2.89;70.27;98954.91;3877979;23;20236;-83
2020/12/10 07:26:05;;;;;;;15.57;7.55;;;;;;;2.91;70.07;98960.06;3876671;22;20023;-82